createdAt,value
2019-01-26T00:00:40.824Z,47.17
2019-01-26T00:03:11.950Z,48.00
2019-01-26T00:05:42.241Z,46.20
2019-01-26T00:08:12.415Z,48.47
2019-01-26T00:10:42.562Z,49.70
2019-01-26T00:13:12.738Z,48.73
2019-01-26T00:15:42.995Z,47.83
2019-01-26T00:18:13.296Z,49.33
2019-01-26T00:20:43.484Z,46.00
2019-01-26T00:23:13.651Z,50.53
2019-01-26T00:25:43.815Z,49.80
2019-01-26T00:28:14.000Z,52.17
2019-01-26T00:30:44.178Z,51.43
2019-01-26T00:33:14.547Z,50.43
2019-01-26T00:35:44.756Z,57.00
2019-01-26T00:38:14.921Z,49.40
2019-01-26T00:40:45.103Z,57.20
2019-01-26T00:43:15.352Z,55.40
2019-01-26T00:45:45.548Z,54.40
2019-01-26T00:48:15.742Z,52.83
2019-01-26T00:50:45.944Z,55.27
2019-01-26T00:53:16.107Z,58.30
2019-01-26T00:55:46.288Z,56.50
2019-01-26T00:58:16.447Z,53.17
2019-01-26T01:00:46.711Z,57.23
2019-01-26T01:03:16.848Z,55.43
2019-01-26T01:05:47.062Z,58.33
2019-01-26T01:08:17.211Z,55.30
2019-01-26T01:10:47.426Z,58.20
2019-01-26T01:13:17.599Z,57.77
2019-01-26T01:15:47.902Z,55.23
2019-01-26T01:18:18.071Z,57.53
2019-01-26T01:20:48.366Z,57.47
2019-01-26T01:23:18.696Z,49.90
2019-01-26T01:25:48.862Z,54.50
2019-01-26T01:28:19.040Z,54.60
2019-01-26T01:30:50.418Z,50.40
2019-01-26T01:33:20.599Z,52.43
2019-01-26T01:35:50.788Z,50.77
2019-01-26T01:38:20.967Z,50.60
2019-01-26T01:40:51.144Z,50.13
2019-01-26T01:43:21.400Z,59.33
2019-01-26T01:45:51.568Z,56.00
2019-01-26T01:48:21.703Z,56.43
2019-01-26T01:50:51.860Z,55.00
2019-01-26T01:53:22.043Z,57.10
2019-01-26T01:55:52.188Z,50.87
2019-01-26T01:58:22.366Z,57.00
2019-01-26T02:00:52.620Z,38.30
2019-01-26T02:03:22.795Z,51.87
2019-01-26T02:05:52.943Z,54.17
2019-01-26T02:08:23.125Z,60.30
2019-01-26T02:10:53.343Z,55.87
2019-01-26T02:13:23.543Z,53.07
2019-01-26T02:15:53.721Z,58.40
2019-01-26T02:18:23.871Z,57.73
2019-01-26T02:20:54.063Z,57.20
2019-01-26T02:23:24.244Z,60.10
2019-01-26T02:25:55.404Z,62.13
2019-01-26T02:28:25.687Z,67.10
2019-01-26T02:30:56.088Z,51.33
2019-01-26T02:33:26.240Z,60.23
2019-01-26T02:35:56.557Z,61.03
2019-01-26T02:38:26.698Z,58.60
2019-01-26T02:40:56.877Z,61.23
2019-01-26T02:43:27.131Z,61.03
2019-01-26T02:45:57.275Z,60.57
2019-01-26T02:48:27.453Z,62.00
2019-01-26T02:50:57.659Z,63.03
2019-01-26T02:53:27.821Z,61.50
2019-01-26T02:55:57.976Z,61.87
2019-01-26T02:58:29.105Z,63.90
2019-01-26T03:00:59.280Z,64.43
2019-01-26T03:03:29.457Z,57.70
2019-01-26T03:05:59.612Z,62.30
2019-01-26T03:08:29.779Z,63.73
2019-01-26T03:10:59.936Z,63.33
2019-01-26T03:13:30.221Z,66.33
2019-01-26T03:16:00.412Z,64.67
2019-01-26T03:18:30.587Z,61.30
2019-01-26T03:21:00.770Z,62.47
2019-01-26T03:23:30.918Z,58.97
2019-01-26T03:26:01.100Z,60.33
2019-01-26T03:28:31.237Z,54.37
2019-01-26T03:31:02.162Z,69.30
2019-01-26T03:33:32.317Z,63.00
2019-01-26T03:36:02.484Z,64.97
2019-01-26T03:38:32.647Z,57.10
2019-01-26T03:41:02.807Z,63.80
2019-01-26T03:43:33.070Z,56.17
2019-01-26T03:46:03.232Z,60.23
2019-01-26T03:48:33.423Z,59.00
2019-01-26T03:51:03.563Z,61.63
2019-01-26T03:53:33.760Z,62.40
2019-01-26T03:56:04.307Z,62.97
2019-01-26T03:58:34.671Z,61.73
2019-01-26T04:01:05.192Z,64.23
2019-01-26T04:03:35.340Z,62.57
2019-01-26T04:06:05.719Z,54.93
2019-01-26T04:08:35.957Z,58.40
2019-01-26T04:11:08.282Z,69.67
2019-01-26T04:13:38.435Z,60.23
2019-01-26T04:16:08.612Z,65.10
2019-01-26T04:18:38.756Z,68.53
2019-01-26T04:21:08.942Z,63.90
2019-01-26T04:23:39.085Z,66.70
2019-01-26T04:26:09.267Z,69.20
2019-01-26T04:28:39.444Z,64.23
2019-01-26T04:31:09.629Z,69.70
2019-01-26T04:33:39.773Z,68.23
2019-01-26T04:36:10.048Z,60.60
2019-01-26T04:38:40.215Z,68.10
2019-01-26T04:41:10.408Z,66.63
2019-01-26T04:43:40.596Z,67.97
2019-01-26T04:46:10.761Z,65.90
2019-01-26T04:48:40.951Z,59.30
2019-01-26T04:51:11.307Z,65.13
2019-01-26T04:53:41.497Z,65.43
2019-01-26T04:56:11.659Z,63.17
2019-01-26T04:58:41.923Z,59.20
2019-01-26T05:01:12.121Z,66.57
2019-01-26T05:03:42.286Z,63.00
2019-01-26T05:06:12.449Z,62.27
2019-01-26T05:08:42.641Z,56.00
2019-01-26T05:11:14.648Z,61.17
2019-01-26T05:13:44.812Z,65.67
2019-01-26T05:16:15.000Z,64.03
2019-01-26T05:18:45.156Z,68.20
2019-01-26T05:21:15.321Z,64.43
2019-01-26T05:23:45.539Z,58.13
2019-01-26T05:26:15.836Z,65.50
2019-01-26T05:28:45.986Z,56.23
2019-01-26T05:31:16.225Z,66.27
2019-01-26T05:33:48.011Z,63.27
2019-01-26T05:36:18.169Z,69.87
2019-01-26T05:38:48.368Z,65.33
2019-01-26T05:41:18.523Z,58.60
2019-01-26T05:43:49.682Z,62.20
2019-01-26T05:46:19.891Z,61.83
2019-01-26T05:48:50.069Z,55.17
2019-01-26T05:51:20.267Z,45.73
2019-01-26T05:53:50.413Z,55.57
2019-01-26T05:56:20.718Z,53.13
2019-01-26T05:58:50.871Z,56.70
2019-01-26T06:01:21.077Z,54.33
2019-01-26T06:03:51.240Z,53.37
2019-01-26T06:06:21.449Z,55.23
2019-01-26T06:08:51.592Z,47.70
2019-01-26T06:11:21.804Z,53.50
2019-01-26T06:13:51.961Z,51.30
2019-01-26T06:16:22.144Z,50.30
2019-01-26T06:18:52.311Z,52.43
2019-01-26T06:21:23.576Z,52.57
2019-01-26T06:23:53.750Z,51.27
2019-01-26T06:26:23.904Z,53.47
2019-01-26T06:28:54.875Z,50.07
2019-01-26T06:31:25.152Z,49.37
2019-01-26T06:33:55.340Z,47.80
2019-01-26T06:36:25.489Z,45.43
2019-01-26T06:38:55.770Z,46.97
2019-01-26T06:41:25.927Z,45.00
2019-01-26T06:43:57.292Z,48.13
2019-01-26T06:46:27.459Z,46.40
2019-01-26T06:49:00.139Z,41.80
2019-01-26T06:51:30.307Z,38.60
2019-01-26T06:54:00.596Z,43.80
2019-01-26T06:56:31.885Z,44.07
2019-01-26T06:59:02.080Z,42.67
2019-01-26T07:01:32.245Z,44.83
2019-01-26T07:04:02.425Z,37.37
2019-01-26T07:07:00.380Z,46.90
2019-01-26T07:09:30.557Z,43.43
2019-01-26T07:12:00.781Z,36.23
2019-01-26T07:14:31.039Z,45.37
2019-01-26T07:17:01.232Z,43.70
2019-01-26T07:19:31.516Z,44.43
2019-01-26T07:22:01.808Z,43.07
2019-01-26T07:24:32.015Z,42.90
2019-01-26T07:27:05.439Z,43.13
2019-01-26T07:29:35.596Z,40.37
2019-01-26T07:32:05.928Z,37.27
2019-01-26T07:34:36.108Z,44.93
2019-01-26T07:37:06.292Z,44.60
2019-01-26T07:39:36.451Z,38.20
2019-01-26T07:42:06.950Z,40.43
2019-01-26T07:44:37.117Z,35.17
2019-01-26T07:47:07.275Z,39.27
2019-01-26T07:49:38.964Z,36.80
2019-01-26T07:52:09.199Z,41.73
2019-01-26T07:54:39.366Z,41.23
2019-01-26T07:57:09.515Z,31.80
2019-01-26T07:59:42.939Z,34.07
2019-01-26T08:02:14.183Z,37.33
2019-01-26T08:04:45.822Z,31.07
2019-01-26T08:07:16.091Z,38.87
2019-01-26T08:09:46.293Z,33.00
2019-01-26T08:12:16.465Z,33.57
2019-01-26T08:14:46.775Z,33.63
2019-01-26T08:17:16.996Z,36.00
2019-01-26T08:19:47.183Z,34.83
2019-01-26T08:22:17.362Z,34.63
2019-01-26T08:24:47.559Z,35.10
2019-01-26T08:27:17.718Z,34.53
2019-01-26T08:29:47.945Z,34.47
2019-01-26T08:32:20.592Z,35.27
2019-01-26T08:34:50.782Z,26.60
2019-01-26T08:37:20.995Z,32.93
2019-01-26T08:39:51.180Z,27.97
2019-01-26T08:42:22.466Z,32.43
2019-01-26T08:44:52.760Z,30.63
2019-01-26T08:47:22.953Z,31.20
2019-01-26T08:49:53.154Z,30.00
2019-01-26T08:52:23.370Z,26.23
2019-01-26T08:54:53.653Z,30.33
2019-01-26T08:57:23.836Z,24.07
2019-01-26T08:59:54.034Z,25.83
2019-01-26T09:02:49.035Z,27.63
2019-01-26T09:05:21.003Z,25.87
2019-01-26T09:07:52.251Z,26.67
2019-01-26T09:10:22.560Z,25.77
2019-01-26T09:12:52.780Z,28.43
2019-01-26T09:15:23.730Z,29.07
2019-01-26T09:17:57.439Z,26.43
2019-01-26T09:20:27.622Z,25.00
2019-01-26T09:22:57.830Z,25.87
2019-01-26T09:25:28.015Z,26.47
2019-01-26T09:27:58.280Z,25.87
2019-01-26T09:30:28.473Z,27.43
2019-01-26T09:33:00.256Z,27.57
2019-01-26T09:35:30.488Z,26.93
2019-01-26T09:38:00.699Z,28.53
2019-01-26T09:40:30.859Z,26.80
2019-01-26T09:43:01.162Z,28.70
2019-01-26T09:45:31.384Z,31.10
2019-01-26T09:48:01.703Z,27.77
2019-01-26T09:50:31.903Z,28.37
2019-01-26T09:53:02.109Z,25.03
2019-01-26T09:55:32.260Z,27.10
2019-01-26T09:58:05.338Z,27.00
2019-01-26T10:00:35.646Z,26.70
2019-01-26T10:03:06.492Z,27.17
2019-01-26T10:05:36.640Z,24.13
2019-01-26T10:08:09.753Z,26.10
2019-01-26T10:10:39.900Z,24.80
2019-01-26T10:13:10.070Z,25.40
2019-01-26T10:15:40.255Z,27.90
2019-01-26T10:18:10.540Z,27.40
2019-01-26T10:20:40.987Z,25.50
2019-01-26T10:23:11.266Z,24.50
2019-01-26T10:25:48.395Z,24.17
2019-01-26T10:28:13.327Z,25.23
2019-01-26T10:30:50.012Z,25.47
2019-01-26T10:33:20.215Z,27.57
2019-01-26T10:36:18.620Z,25.37
2019-01-26T10:38:53.121Z,26.90
2019-01-26T10:41:29.838Z,22.93
2019-01-26T10:43:59.999Z,26.50
2019-01-26T10:46:30.184Z,25.30
2019-01-26T10:49:01.421Z,26.97
2019-01-26T10:51:31.595Z,25.30
2019-01-26T10:54:01.745Z,27.13
2019-01-26T10:56:31.895Z,25.90
2019-01-26T10:59:02.215Z,25.57
2019-01-26T11:01:32.363Z,26.10
2019-01-26T11:04:02.588Z,24.40
2019-01-26T11:06:32.768Z,22.80
2019-01-26T11:09:03.383Z,23.97
2019-01-26T11:11:33.562Z,22.67
2019-01-26T11:14:04.927Z,21.70
2019-01-26T11:16:35.088Z,22.80
2019-01-26T11:19:08.003Z,23.70
2019-01-26T11:21:37.361Z,22.27
2019-01-26T11:24:07.608Z,24.43
2019-01-26T11:26:37.774Z,20.30
2019-01-26T11:29:07.919Z,22.13
2019-01-26T11:31:38.492Z,23.27
2019-01-26T11:34:08.672Z,21.27
2019-01-26T11:36:57.899Z,22.40
2019-01-26T11:39:28.071Z,20.40
2019-01-26T11:41:58.262Z,19.30
2019-01-26T11:44:28.421Z,21.33
2019-01-26T11:47:11.324Z,20.20
2019-01-26T11:49:47.367Z,18.30
2019-01-26T11:52:17.675Z,17.80
2019-01-26T11:55:03.573Z,15.67
2019-01-26T11:57:36.132Z,18.47
2019-01-26T12:00:31.050Z,18.37
2019-01-26T12:03:07.293Z,16.60
2019-01-26T12:05:42.517Z,16.37
2019-01-26T12:08:12.725Z,15.47
2019-01-26T12:10:42.975Z,15.17
2019-01-26T12:13:13.179Z,14.93
2019-01-26T12:15:43.329Z,13.43
2019-01-26T12:18:13.476Z,14.80
2019-01-26T12:20:43.684Z,14.80
2019-01-26T12:23:14.939Z,12.97
2019-01-26T12:25:45.220Z,14.30
2019-01-26T12:28:15.391Z,13.70
2019-01-26T12:30:45.576Z,14.60
2019-01-26T12:33:16.098Z,12.80
2019-01-26T12:35:46.259Z,13.67
2019-01-26T12:38:16.531Z,13.03
2019-01-26T12:40:46.696Z,11.30
2019-01-26T12:43:16.887Z,13.43
2019-01-26T12:45:47.074Z,12.00
2019-01-26T12:48:17.211Z,13.47
2019-01-26T12:50:47.577Z,11.13
2019-01-26T12:53:20.949Z,10.93
2019-01-26T12:55:53.061Z,12.93
2019-01-26T12:58:23.408Z,11.83
2019-01-26T13:00:53.599Z,12.10
2019-01-26T13:03:23.885Z,11.80
2019-01-26T13:05:54.072Z,13.40
2019-01-26T13:08:24.229Z,13.20
2019-01-26T13:10:57.920Z,13.73
2019-01-26T13:13:31.045Z,12.53
2019-01-26T13:16:01.220Z,12.93
2019-01-26T13:18:31.440Z,13.93
2019-01-26T13:21:01.645Z,13.00
2019-01-26T13:23:31.851Z,13.93
2019-01-26T13:26:01.999Z,12.37
2019-01-26T13:28:33.431Z,12.80
2019-01-26T13:31:04.719Z,12.10
2019-01-26T13:33:34.951Z,12.60
2019-01-26T13:36:06.062Z,12.93
2019-01-26T13:38:36.335Z,11.97
2019-01-26T13:41:06.583Z,13.10
2019-01-26T13:43:37.742Z,12.03
2019-01-26T13:46:07.915Z,13.10
2019-01-26T13:48:39.299Z,13.43
2019-01-26T13:51:13.051Z,13.90
2019-01-26T13:53:41.380Z,12.60
2019-01-26T13:56:11.655Z,11.23
2019-01-26T13:58:41.795Z,12.53
2019-01-26T14:01:12.000Z,10.17
2019-01-26T14:03:42.168Z,12.47
2019-01-26T14:06:12.353Z,11.70
2019-01-26T14:08:42.540Z,9.87
2019-01-26T14:11:12.711Z,10.03
2019-01-26T14:13:44.084Z,10.67
2019-01-26T14:16:14.614Z,10.23
2019-01-26T14:18:44.784Z,10.03
2019-01-26T14:21:14.949Z,9.70
2019-01-26T14:23:45.122Z,9.63
2019-01-26T14:26:15.283Z,10.40
2019-01-26T14:28:45.473Z,7.70
2019-01-26T14:31:15.696Z,9.67
2019-01-26T14:33:45.893Z,10.20
2019-01-26T14:36:16.399Z,10.37
2019-01-26T14:38:46.741Z,10.50
2019-01-26T14:41:16.954Z,9.70
2019-01-26T14:43:47.115Z,7.53
2019-01-26T14:46:17.344Z,10.53
2019-01-26T14:48:47.583Z,10.40
2019-01-26T14:51:17.764Z,10.80
2019-01-26T14:53:48.013Z,10.80
2019-01-26T14:56:18.325Z,10.43
2019-01-26T14:58:48.551Z,8.60
2019-01-26T15:01:18.740Z,10.37
2019-01-26T15:03:48.956Z,9.63
2019-01-26T15:06:19.220Z,10.60
2019-01-26T15:08:49.428Z,9.07
2019-01-26T15:11:19.614Z,8.87
2019-01-26T15:13:49.839Z,9.37
2019-01-26T15:16:20.025Z,9.10
2019-01-26T15:18:51.276Z,8.20
2019-01-26T15:21:21.480Z,9.07
2019-01-26T15:23:51.637Z,6.63
2019-01-26T15:26:21.846Z,8.10
2019-01-26T15:28:52.024Z,8.80
2019-01-26T15:31:22.223Z,8.93
2019-01-26T15:33:52.441Z,8.67
2019-01-26T15:36:22.611Z,9.27
2019-01-26T15:38:52.752Z,8.83
2019-01-26T15:41:23.061Z,10.00
2019-01-26T15:43:53.230Z,7.70
2019-01-26T15:46:23.532Z,6.73
2019-01-26T15:48:53.731Z,7.50
2019-01-26T15:51:23.893Z,6.47
2019-01-26T15:53:54.089Z,7.47
2019-01-26T15:56:24.382Z,7.80
2019-01-26T15:58:54.679Z,6.03
2019-01-26T16:01:24.988Z,6.87
2019-01-26T16:03:55.172Z,7.33
2019-01-26T16:06:25.321Z,7.30
2019-01-26T16:08:55.637Z,7.17
2019-01-26T16:11:26.944Z,8.53
2019-01-26T16:13:57.212Z,12.73
2019-01-26T16:16:27.423Z,12.77
2019-01-26T16:18:57.609Z,7.93
2019-01-26T16:21:27.838Z,10.20
2019-01-26T16:23:58.024Z,8.17
2019-01-26T16:26:28.219Z,10.40
2019-01-26T16:28:58.480Z,11.23
2019-01-26T16:31:28.700Z,10.30
2019-01-26T16:33:58.927Z,11.00
2019-01-26T16:36:29.097Z,11.90
2019-01-26T16:38:59.386Z,11.83
2019-01-26T16:41:29.595Z,10.20
2019-01-26T16:43:59.797Z,9.03
2019-01-26T16:46:30.003Z,10.67
2019-01-26T16:49:00.252Z,11.37
2019-01-26T16:51:30.453Z,11.17
2019-01-26T16:54:00.649Z,12.17
2019-01-26T16:56:30.880Z,9.70
2019-01-26T16:59:01.110Z,16.70
2019-01-26T17:01:31.247Z,9.70
2019-01-26T17:04:01.475Z,8.37
2019-01-26T17:06:31.816Z,10.90
2019-01-26T17:09:02.025Z,8.43
2019-01-26T17:11:33.798Z,9.27
2019-01-26T17:14:04.270Z,7.17
2019-01-26T17:16:34.445Z,8.20
2019-01-26T17:19:04.769Z,23.83
2019-01-26T17:21:34.943Z,9.70
2019-01-26T17:24:05.300Z,8.80
2019-01-26T17:26:35.467Z,9.67
2019-01-26T17:29:05.737Z,8.60
2019-01-26T17:31:38.042Z,8.40
2019-01-26T17:34:08.223Z,7.60
2019-01-26T17:36:38.407Z,10.17
2019-01-26T17:39:09.821Z,8.30
2019-01-26T17:41:40.008Z,6.57
2019-01-26T17:44:10.174Z,7.47
2019-01-26T17:46:40.472Z,6.70
2019-01-26T17:49:12.582Z,8.67
2019-01-26T17:51:42.777Z,7.90
2019-01-26T17:54:14.120Z,8.70
2019-01-26T17:56:44.464Z,8.77
2019-01-26T17:59:14.720Z,10.30
2019-01-26T18:01:45.005Z,8.50
2019-01-26T18:04:15.203Z,9.57
2019-01-26T18:06:45.379Z,8.63
2019-01-26T18:09:15.615Z,9.30
2019-01-26T18:11:45.812Z,9.07
2019-01-26T18:14:16.091Z,9.90
2019-01-26T18:16:46.306Z,9.10
2019-01-26T18:19:16.590Z,10.70
2019-01-26T18:21:46.804Z,9.60
2019-01-26T18:24:18.255Z,9.50
2019-01-26T18:26:48.577Z,9.83
2019-01-26T18:29:18.741Z,7.73
2019-01-26T18:31:48.945Z,8.57
2019-01-26T18:34:19.333Z,8.00
2019-01-26T18:36:50.664Z,8.17
2019-01-26T18:39:20.969Z,9.20
2019-01-26T18:41:51.222Z,10.73
2019-01-26T18:44:22.931Z,8.30
2019-01-26T18:46:53.089Z,11.20
2019-01-26T18:49:23.361Z,10.23
2019-01-26T18:51:54.687Z,7.03
2019-01-26T18:54:24.903Z,6.70
2019-01-26T18:56:55.216Z,8.23
2019-01-26T18:59:25.458Z,7.10
2019-01-26T19:01:55.747Z,5.90
2019-01-26T19:04:46.914Z,6.60
2019-01-26T19:07:17.096Z,9.37
2019-01-26T19:09:47.407Z,7.80
2019-01-26T19:12:17.967Z,7.33
2019-01-26T19:14:48.181Z,7.67
2019-01-26T19:17:18.414Z,7.27
2019-01-26T19:19:48.579Z,6.57
2019-01-26T19:22:18.907Z,6.53
2019-01-26T19:24:49.089Z,6.40
2019-01-26T19:27:19.498Z,8.47
2019-01-26T19:29:49.619Z,9.27
2019-01-26T19:32:19.800Z,5.90
2019-01-26T19:34:50.068Z,9.97
2019-01-26T19:37:20.394Z,7.70
2019-01-26T19:39:50.633Z,8.13
2019-01-26T19:42:21.889Z,7.37
2019-01-26T19:44:52.129Z,7.37
2019-01-26T19:47:22.332Z,5.20
2019-01-26T19:49:52.530Z,6.23
2019-01-26T19:52:22.704Z,5.60
2019-01-26T19:54:52.879Z,5.97
2019-01-26T19:57:23.094Z,6.23
2019-01-26T19:59:53.585Z,7.33
2019-01-26T20:02:23.992Z,6.03
2019-01-26T20:04:55.387Z,4.80
2019-01-26T20:07:25.803Z,5.23
2019-01-26T20:09:56.017Z,6.20
2019-01-26T20:12:26.357Z,6.20
2019-01-26T20:14:56.547Z,7.13
2019-01-26T20:17:26.783Z,6.03
2019-01-26T20:19:57.153Z,6.10
2019-01-26T20:22:28.495Z,5.60
2019-01-26T20:24:58.772Z,5.80
2019-01-26T20:27:28.934Z,5.80
2019-01-26T20:30:00.297Z,5.60
2019-01-26T20:32:30.534Z,3.70
2019-01-26T20:35:01.825Z,5.37
2019-01-26T20:37:32.291Z,5.30
2019-01-26T20:40:02.465Z,5.07
2019-01-26T20:42:32.763Z,8.00
2019-01-26T20:45:03.013Z,6.03
2019-01-26T20:47:33.259Z,6.17
2019-01-26T20:50:04.018Z,6.03
2019-01-26T20:52:34.320Z,6.43
2019-01-26T20:55:04.694Z,4.60
2019-01-26T20:57:34.967Z,6.70
2019-01-26T21:00:08.591Z,6.00
2019-01-26T21:02:38.919Z,4.80
2019-01-26T21:05:10.639Z,4.07
2019-01-26T21:07:40.985Z,3.80
2019-01-26T21:10:20.507Z,4.30
2019-01-26T21:12:51.299Z,3.53
2019-01-26T21:15:21.638Z,3.50
2019-01-26T21:17:53.016Z,4.23
2019-01-26T21:20:24.075Z,3.73
2019-01-26T21:22:54.273Z,3.60
2019-01-26T21:25:25.530Z,3.80
2019-01-26T21:27:55.786Z,3.63
2019-01-26T21:30:27.614Z,3.60
2019-01-26T21:32:58.418Z,3.37
2019-01-26T21:35:28.628Z,3.60
2019-01-26T21:37:58.836Z,3.80
2019-01-26T21:40:32.639Z,3.50
2019-01-26T21:43:03.071Z,3.53
2019-01-26T21:45:33.607Z,3.80
2019-01-26T21:48:04.105Z,4.20
2019-01-26T21:50:34.756Z,3.70
2019-01-26T21:53:05.323Z,4.07
2019-01-26T21:55:35.531Z,2.97
2019-01-26T21:58:05.998Z,2.80
2019-01-26T22:00:36.229Z,3.07
2019-01-26T22:03:06.508Z,3.07
2019-01-26T22:05:36.684Z,3.20
2019-01-26T22:08:06.972Z,2.93
2019-01-26T22:10:38.249Z,2.27
2019-01-26T22:13:09.671Z,2.83
2019-01-26T22:15:41.188Z,2.50
2019-01-26T22:18:11.403Z,2.30
2019-01-26T22:20:41.595Z,2.40
2019-01-26T22:23:11.856Z,2.33
2019-01-26T22:25:42.083Z,2.47
2019-01-26T22:28:12.392Z,2.20
2019-01-26T22:30:42.742Z,2.03
2019-01-26T22:33:12.955Z,2.20
2019-01-26T22:35:43.152Z,2.90
2019-01-26T22:38:13.340Z,2.57
2019-01-26T22:40:43.590Z,3.67
2019-01-26T22:43:13.796Z,3.00
2019-01-26T22:45:43.999Z,2.47
2019-01-26T22:48:14.217Z,2.47
2019-01-26T22:50:44.659Z,2.40
2019-01-26T22:53:15.035Z,2.03
2019-01-26T22:55:45.232Z,1.70
2019-01-26T22:58:16.516Z,1.73
2019-01-26T23:01:01.555Z,2.00
2019-01-26T23:04:08.769Z,1.60
2019-01-26T23:07:07.843Z,1.83
2019-01-26T23:10:01.956Z,1.87
2019-01-26T23:12:50.325Z,2.20
2019-01-26T23:16:09.543Z,1.20
2019-01-26T23:19:29.083Z,1.53
2019-01-26T23:22:51.469Z,1.47
2019-01-26T23:26:09.235Z,1.60
2019-01-26T23:29:11.116Z,1.10
2019-01-26T23:31:41.364Z,1.30
2019-01-26T23:34:11.596Z,1.30
2019-01-26T23:36:42.835Z,1.70
2019-01-26T23:39:13.074Z,1.30
2019-01-26T23:41:43.235Z,1.30
2019-01-26T23:44:13.495Z,1.30
2019-01-26T23:46:43.701Z,1.20
2019-01-26T23:49:13.940Z,1.47
2019-01-26T23:51:44.209Z,1.10
2019-01-26T23:54:14.490Z,1.57
2019-01-26T23:56:46.139Z,1.43
2019-01-26T23:59:16.430Z,1.90
